sensor_id;sensor_type;location;lat;lon;timestamp;pressure;altitude;pressure_sealevel;temperature;humidity
47280;BME280;34064;44.942;0.008;2022-10-04T00:03:12;99183.94;;;16.11;58.82
47280;BME280;34064;44.942;0.008;2022-10-04T00:05:46;99174.81;;;16.04;58.44
47280;BME280;34064;44.942;0.008;2022-10-04T00:08:25;99183.16;;;16.01;58.60
47280;BME280;34064;44.942;0.008;2022-10-04T00:11:27;99173.41;;;16.00;58.49
47280;BME280;34064;44.942;0.008;2022-10-04T00:13:58;99180.63;;;15.89;58.70
47280;BME280;34064;44.942;0.008;2022-10-04T00:16:35;99178.91;;;15.88;58.77
47280;BME280;34064;44.942;0.008;2022-10-04T00:29:32;99179.19;;;15.75;58.66
47280;BME280;34064;44.942;0.008;2022-10-04T00:34:46;99177.22;;;15.68;58.92
47280;BME280;34064;44.942;0.008;2022-10-04T00:37:15;99181.13;;;15.64;58.89
47280;BME280;34064;44.942;0.008;2022-10-04T00:40:10;99175.66;;;15.65;58.88
47280;BME280;34064;44.942;0.008;2022-10-04T00:42:45;99180.31;;;15.63;58.83
47280;BME280;34064;44.942;0.008;2022-10-04T00:45:32;99177.22;;;15.58;58.95
47280;BME280;34064;44.942;0.008;2022-10-04T00:48:17;99180.72;;;15.58;58.98
47280;BME280;34064;44.942;0.008;2022-10-04T00:51:22;99173.94;;;15.54;59.01
47280;BME280;34064;44.942;0.008;2022-10-04T01:01:50;99177.47;;;15.35;59.06
47280;BME280;34064;44.942;0.008;2022-10-04T01:04:32;99171.97;;;15.37;58.90
47280;BME280;34064;44.942;0.008;2022-10-04T01:07:02;99180.84;;;15.27;58.99
47280;BME280;34064;44.942;0.008;2022-10-04T01:09:32;99176.19;;;15.29;58.87
47280;BME280;34064;44.942;0.008;2022-10-04T01:12:26;99172.53;;;15.31;58.77
47280;BME280;34064;44.942;0.008;2022-10-04T01:15:15;99179.13;;;15.26;58.95
47280;BME280;34064;44.942;0.008;2022-10-04T01:18:13;99176.03;;;15.21;58.99
47280;BME280;34064;44.942;0.008;2022-10-04T01:20:54;99174.34;;;15.20;58.87
47280;BME280;34064;44.942;0.008;2022-10-04T01:23:39;99174.63;;;15.17;58.87
47280;BME280;34064;44.942;0.008;2022-10-04T01:29:07;99184.75;;;15.04;59.11
47280;BME280;34064;44.942;0.008;2022-10-04T01:31:38;99188.41;;;15.03;58.98
47280;BME280;34064;44.942;0.008;2022-10-04T01:34:06;99180.53;;;15.01;58.96
47280;BME280;34064;44.942;0.008;2022-10-04T01:36:33;99172.63;;;15.00;59.00
47280;BME280;34064;44.942;0.008;2022-10-04T01:39:01;99177.25;;;14.97;59.06
47280;BME280;34064;44.942;0.008;2022-10-04T01:44:05;99177.81;;;14.91;59.24
47280;BME280;34064;44.942;0.008;2022-10-04T01:46:35;99175.38;;;14.88;59.23
47280;BME280;34064;44.942;0.008;2022-10-04T01:49:06;99179.06;;;14.87;59.13
47280;BME280;34064;44.942;0.008;2022-10-04T01:52:23;99178.06;;;14.78;59.33
47280;BME280;34064;44.942;0.008;2022-10-04T01:54:32;99170.44;;;14.74;59.26
47280;BME280;34064;44.942;0.008;2022-10-04T01:59:56;99175.06;;;14.72;58.81
47280;BME280;34064;44.942;0.008;2022-10-04T02:02:50;99171.97;;;14.66;59.01
47280;BME280;34064;44.942;0.008;2022-10-04T02:05:31;99175.72;;;14.64;59.09
47280;BME280;34064;44.942;0.008;2022-10-04T02:08:03;99174.16;;;14.61;59.10
47280;BME280;34064;44.942;0.008;2022-10-04T02:10:33;99169.09;;;14.58;59.25
47280;BME280;34064;44.942;0.008;2022-10-04T02:13:02;99160.91;;;14.60;59.21
47280;BME280;34064;44.942;0.008;2022-10-04T02:15:31;99162.88;;;14.58;59.27
47280;BME280;34064;44.942;0.008;2022-10-04T02:17:58;99160.34;;;14.56;59.31
47280;BME280;34064;44.942;0.008;2022-10-04T02:20:26;99154.03;;;14.57;59.29
47280;BME280;34064;44.942;0.008;2022-10-04T02:22:58;99147.69;;;14.58;59.39
47280;BME280;34064;44.942;0.008;2022-10-04T02:25:29;99155.97;;;14.55;59.53
47280;BME280;34064;44.942;0.008;2022-10-04T02:27:56;99156.97;;;14.54;59.54
47280;BME280;34064;44.942;0.008;2022-10-04T02:30:23;99158.91;;;14.52;59.56
47280;BME280;34064;44.942;0.008;2022-10-04T02:32:53;99155.53;;;14.50;59.56
47280;BME280;34064;44.942;0.008;2022-10-04T02:35:23;99154.13;;;14.46;59.79
47280;BME280;34064;44.942;0.008;2022-10-04T02:38:20;99151.03;;;14.50;59.52
47280;BME280;34064;44.942;0.008;2022-10-04T02:41:19;99149.50;;;14.48;59.61
47280;BME280;34064;44.942;0.008;2022-10-04T02:43:56;99144.41;;;14.45;59.49
47280;BME280;34064;44.942;0.008;2022-10-04T02:49:04;99150.94;;;14.31;59.66
47280;BME280;34064;44.942;0.008;2022-10-04T02:52:02;99149.50;;;14.27;59.61
47280;BME280;34064;44.942;0.008;2022-10-04T02:57:26;99151.41;;;14.15;59.38
47280;BME280;34064;44.942;0.008;2022-10-04T03:00:12;99145.81;;;14.18;59.36
47280;BME280;34064;44.942;0.008;2022-10-04T03:03:10;99143.28;;;14.16;59.32
47280;BME280;34064;44.942;0.008;2022-10-04T03:05:42;99147.91;;;14.14;59.21
47280;BME280;34064;44.942;0.008;2022-10-04T03:08:09;99140.72;;;14.15;59.32
47280;BME280;34064;44.942;0.008;2022-10-04T03:10:37;99134.81;;;14.11;59.44
47280;BME280;34064;44.942;0.008;2022-10-04T03:13:04;99133.41;;;14.07;59.64
47280;BME280;34064;44.942;0.008;2022-10-04T03:15:31;99124.53;;;14.07;59.59
47280;BME280;34064;44.942;0.008;2022-10-04T03:17:58;99127.19;;;14.07;59.52
47280;BME280;34064;44.942;0.008;2022-10-04T03:20:25;99136.47;;;14.02;59.50
47280;BME280;34064;44.942;0.008;2022-10-04T03:22:53;99136.72;;;13.99;59.79
47280;BME280;34064;44.942;0.008;2022-10-04T03:25:24;99142.31;;;13.96;60.03
47280;BME280;34064;44.942;0.008;2022-10-04T03:27:53;99151.59;;;13.92;60.03
47280;BME280;34064;44.942;0.008;2022-10-04T03:30:21;99143.69;;;13.91;60.04
47280;BME280;34064;44.942;0.008;2022-10-04T03:32:48;99144.06;;;13.86;59.87
47280;BME280;34064;44.942;0.008;2022-10-04T03:35:36;99143.25;;;13.85;59.42
47280;BME280;34064;44.942;0.008;2022-10-04T03:38:08;99144.13;;;13.75;59.62
47280;BME280;34064;44.942;0.008;2022-10-04T03:40:38;99155.59;;;13.65;59.59
47280;BME280;34064;44.942;0.008;2022-10-04T03:43:09;99150.53;;;13.62;59.74
47280;BME280;34064;44.942;0.008;2022-10-04T03:45:39;99148.81;;;13.61;59.58
47280;BME280;34064;44.942;0.008;2022-10-04T03:48:12;99154.16;;;13.61;59.82
47280;BME280;34064;44.942;0.008;2022-10-04T03:50:45;99146.28;;;13.60;59.81
47280;BME280;34064;44.942;0.008;2022-10-04T03:53:35;99146.28;;;13.60;59.81
47280;BME280;34064;44.942;0.008;2022-10-04T03:56:34;99160.72;;;13.57;59.85
47280;BME280;34064;44.942;0.008;2022-10-04T03:59:02;99152.72;;;13.57;60.03
47280;BME280;34064;44.942;0.008;2022-10-04T04:01:34;99162.81;;;13.53;60.08
47280;BME280;34064;44.942;0.008;2022-10-04T04:07:31;99152.25;;;13.52;60.06
47280;BME280;34064;44.942;0.008;2022-10-04T04:10:23;99156.28;;;13.46;59.93
47280;BME280;34064;44.942;0.008;2022-10-04T04:12:53;99155.84;;;13.41;59.80
47280;BME280;34064;44.942;0.008;2022-10-04T04:15:22;99161.28;;;13.39;59.86
47280;BME280;34064;44.942;0.008;2022-10-04T04:17:54;99158.72;;;13.38;59.91
47280;BME280;34064;44.942;0.008;2022-10-04T04:20:24;99160.91;;;13.33;59.99
47280;BME280;34064;44.942;0.008;2022-10-04T04:23:04;99161.75;;;13.33;60.16
47280;BME280;34064;44.942;0.008;2022-10-04T04:25:49;99160.31;;;13.29;60.16
47280;BME280;34064;44.942;0.008;2022-10-04T04:28:32;99163.94;;;13.28;60.14
47280;BME280;34064;44.942;0.008;2022-10-04T04:31:03;99165.66;;;13.29;60.10
47280;BME280;34064;44.942;0.008;2022-10-04T04:33:50;99164.94;;;13.27;60.00
47280;BME280;34064;44.942;0.008;2022-10-04T04:36:20;99168.81;;;13.23;59.94
47280;BME280;34064;44.942;0.008;2022-10-04T04:38:46;99164.47;;;13.22;60.00
47280;BME280;34064;44.942;0.008;2022-10-04T04:41:45;99163.88;;;13.18;60.19
47280;BME280;34064;44.942;0.008;2022-10-04T04:44:16;99166.66;;;13.17;60.37
47280;BME280;34064;44.942;0.008;2022-10-04T04:46:48;99178.41;;;13.14;60.58
47280;BME280;34064;44.942;0.008;2022-10-04T04:49:16;99173.34;;;13.11;60.30
47280;BME280;34064;44.942;0.008;2022-10-04T04:51:48;99182.41;;;13.08;60.28
47280;BME280;34064;44.942;0.008;2022-10-04T04:54:23;99179.38;;;13.13;60.15
47280;BME280;34064;44.942;0.008;2022-10-04T04:56:52;99177.22;;;13.07;60.11
47280;BME280;34064;44.942;0.008;2022-10-04T04:59:22;99181.00;;;13.04;60.10
47280;BME280;34064;44.942;0.008;2022-10-04T05:01:49;99184.16;;;12.98;60.30
47280;BME280;34064;44.942;0.008;2022-10-04T05:04:21;99190.47;;;12.97;60.52
47280;BME280;34064;44.942;0.008;2022-10-04T05:07:02;99191.69;;;12.93;60.42
47280;BME280;34064;44.942;0.008;2022-10-04T05:09:30;99180.78;;;12.96;60.08
47280;BME280;34064;44.942;0.008;2022-10-04T05:12:17;99187.06;;;12.95;60.28
47280;BME280;34064;44.942;0.008;2022-10-04T05:14:48;99177.88;;;12.88;60.41
47280;BME280;34064;44.942;0.008;2022-10-04T05:17:25;99180.66;;;12.86;60.48
47280;BME280;34064;44.942;0.008;2022-10-04T05:19:56;99181.63;;;12.85;60.46
47280;BME280;34064;44.942;0.008;2022-10-04T05:22:25;99177.28;;;12.84;60.21
47280;BME280;34064;44.942;0.008;2022-10-04T05:24:54;99186.47;;;12.80;60.35
47280;BME280;34064;44.942;0.008;2022-10-04T05:27:31;99186.63;;;12.78;60.37
47280;BME280;34064;44.942;0.008;2022-10-04T05:30:36;99186.63;;;12.78;60.28
47280;BME280;34064;44.942;0.008;2022-10-04T05:33:16;99187.81;;;12.74;60.23
47280;BME280;34064;44.942;0.008;2022-10-04T05:36:02;99185.00;;;12.76;60.40
47280;BME280;34064;44.942;0.008;2022-10-04T05:44:01;99202.84;;;12.64;60.73
47280;BME280;34064;44.942;0.008;2022-10-04T05:46:30;99197.50;;;12.64;60.79
47280;BME280;34064;44.942;0.008;2022-10-04T05:49:10;99198.38;;;12.64;60.71
47280;BME280;34064;44.942;0.008;2022-10-04T05:54:23;99194.97;;;12.62;60.81
47280;BME280;34064;44.942;0.008;2022-10-04T06:02:36;99205.50;;;12.53;61.49
47280;BME280;34064;44.942;0.008;2022-10-04T06:08:35;99209.25;;;12.50;61.06
47280;BME280;34064;44.942;0.008;2022-10-04T06:13:53;99214.94;;;12.45;60.66
47280;BME280;34064;44.942;0.008;2022-10-04T06:22:15;99230.44;;;12.40;60.74
47280;BME280;34064;44.942;0.008;2022-10-04T06:24:49;99230.53;;;12.39;60.74
47280;BME280;34064;44.942;0.008;2022-10-04T06:30:04;99230.53;;;12.39;60.90
47280;BME280;34064;44.942;0.008;2022-10-04T06:35:36;99224.75;;;12.45;60.83
47280;BME280;34064;44.942;0.008;2022-10-04T06:38:26;99232.50;;;12.48;60.76
47280;BME280;34064;44.942;0.008;2022-10-04T06:41:33;99225.84;;;12.54;60.85
47280;BME280;34064;44.942;0.008;2022-10-04T06:55:57;99228.28;;;12.68;61.06
47280;BME280;34064;44.942;0.008;2022-10-04T06:58:43;99226.84;;;12.75;61.06
47280;BME280;34064;44.942;0.008;2022-10-04T07:01:28;99232.63;;;12.80;61.35
47280;BME280;34064;44.942;0.008;2022-10-04T07:04:20;99231.31;;;12.86;61.06
47280;BME280;34064;44.942;0.008;2022-10-04T07:07:22;99231.66;;;12.93;61.24
47280;BME280;34064;44.942;0.008;2022-10-04T07:12:43;99228.41;;;13.12;60.80
47280;BME280;34064;44.942;0.008;2022-10-04T07:15:23;99233.47;;;13.15;61.33
47280;BME280;34064;44.942;0.008;2022-10-04T07:17:52;99225.09;;;13.20;61.17
47280;BME280;34064;44.942;0.008;2022-10-04T07:20:30;99229.81;;;13.27;61.51
47280;BME280;34064;44.942;0.008;2022-10-04T07:23:24;99224.56;;;13.37;61.23
47280;BME280;34064;44.942;0.008;2022-10-04T07:25:59;99229.56;;;13.42;61.12
47280;BME280;34064;44.942;0.008;2022-10-04T07:28:38;99222.88;;;13.48;61.10
47280;BME280;34064;44.942;0.008;2022-10-04T07:31:30;99220.16;;;13.59;61.23
47280;BME280;34064;44.942;0.008;2022-10-04T07:37:18;99223.38;;;13.74;61.37
47280;BME280;34064;44.942;0.008;2022-10-04T07:42:31;99228.88;;;13.94;61.16
47280;BME280;34064;44.942;0.008;2022-10-04T07:45:22;99220.81;;;14.05;61.01
47280;BME280;34064;44.942;0.008;2022-10-04T07:47:50;99223.69;;;14.13;61.33
47280;BME280;34064;44.942;0.008;2022-10-04T07:53:30;99215.50;;;14.36;61.38
47280;BME280;34064;44.942;0.008;2022-10-04T07:56:15;99215.59;;;14.46;61.62
47280;BME280;34064;44.942;0.008;2022-10-04T07:59:34;99220.84;;;14.57;61.33
47280;BME280;34064;44.942;0.008;2022-10-04T08:01:47;99216.44;;;14.68;61.31
47280;BME280;34064;44.942;0.008;2022-10-04T08:04:29;99216.31;;;14.79;61.70
47280;BME280;34064;44.942;0.008;2022-10-04T08:12:52;99203.63;;;15.22;62.35
47280;BME280;34064;44.942;0.008;2022-10-04T08:15:38;99196.06;;;15.37;62.65
47280;BME280;34064;44.942;0.008;2022-10-04T08:20:49;99192.16;;;15.60;62.82
47280;BME280;34064;44.942;0.008;2022-10-04T08:26:01;99184.56;;;15.85;63.05
47280;BME280;34064;44.942;0.008;2022-10-04T08:28:44;99177.78;;;16.01;63.19
47280;BME280;34064;44.942;0.008;2022-10-04T08:31:51;99168.69;;;16.21;63.22
47280;BME280;34064;44.942;0.008;2022-10-04T08:34:44;99167.25;;;16.37;63.47
47280;BME280;34064;44.942;0.008;2022-10-04T08:51:40;99145.91;;;17.29;63.02
47280;BME280;34064;44.942;0.008;2022-10-04T09:00:11;99127.69;;;17.77;62.92
47280;BME280;34064;44.942;0.008;2022-10-04T09:11:55;99118.25;;;18.44;62.61
47280;BME280;34064;44.942;0.008;2022-10-04T09:20:49;99100.41;;;18.85;62.19
47280;BME280;34064;44.942;0.008;2022-10-04T09:26:21;99095.28;;;19.09;62.17
47280;BME280;34064;44.942;0.008;2022-10-04T09:59:10;99062.94;;;20.87;59.03
47280;BME280;34064;44.942;0.008;2022-10-04T10:05:04;99053.91;;;21.27;57.73
47280;BME280;34064;44.942;0.008;2022-10-04T10:16:20;99039.50;;;21.73;56.32
47280;BME280;34064;44.942;0.008;2022-10-04T10:19:35;99036.34;;;21.84;56.02
47280;BME280;34064;44.942;0.008;2022-10-04T10:22:18;99029.00;;;21.93;55.48
47280;BME280;34064;44.942;0.008;2022-10-04T10:27:28;99017.31;;;22.22;54.88
47280;BME280;34064;44.942;0.008;2022-10-04T10:38:37;99015.41;;;22.68;53.29
47280;BME280;34064;44.942;0.008;2022-10-04T10:46:27;98997.91;;;23.07;52.63
47280;BME280;34064;44.942;0.008;2022-10-04T11:15:29;98950.00;;;24.48;49.65
47280;BME280;34064;44.942;0.008;2022-10-04T11:30:15;98938.84;;;25.05;46.78
47280;BME280;34064;44.942;0.008;2022-10-04T11:33:14;98934.47;;;25.11;47.37
47280;BME280;34064;44.942;0.008;2022-10-04T11:41:28;98932.16;;;25.21;46.38
47280;BME280;34064;44.942;0.008;2022-10-04T12:00:19;98913.22;;;25.87;44.93
47280;BME280;34064;44.942;0.008;2022-10-04T12:05:30;98906.28;;;25.97;43.97
47280;BME280;34064;44.942;0.008;2022-10-04T12:20:27;98883.94;;;26.34;43.27
47280;BME280;34064;44.942;0.008;2022-10-04T12:23:25;98877.16;;;26.43;43.12
47280;BME280;34064;44.942;0.008;2022-10-04T12:26:05;98868.13;;;26.50;43.09
47280;BME280;34064;44.942;0.008;2022-10-04T12:32:10;98871.19;;;26.60;42.37
47280;BME280;34064;44.942;0.008;2022-10-04T12:40:30;98864.19;;;26.77;41.98
47280;BME280;34064;44.942;0.008;2022-10-04T12:43:34;98867.06;;;26.83;42.66
47280;BME280;34064;44.942;0.008;2022-10-04T12:51:56;98859.94;;;27.07;41.65
47280;BME280;34064;44.942;0.008;2022-10-04T12:54:29;98859.28;;;27.12;40.88
47280;BME280;34064;44.942;0.008;2022-10-04T13:13:51;98855.56;;;27.50;39.89
47280;BME280;34064;44.942;0.008;2022-10-04T13:24:16;98852.81;;;27.68;39.48
47280;BME280;34064;44.942;0.008;2022-10-04T13:27:08;98850.22;;;27.74;39.22
47280;BME280;34064;44.942;0.008;2022-10-04T13:29:58;98846.38;;;27.81;39.37
47280;BME280;34064;44.942;0.008;2022-10-04T13:32:46;98842.50;;;27.89;39.45
47280;BME280;34064;44.942;0.008;2022-10-04T13:35:39;98837.53;;;27.98;39.14
47280;BME280;34064;44.942;0.008;2022-10-04T14:00:32;98852.16;;;28.22;37.46
47280;BME280;34064;44.942;0.008;2022-10-04T14:16:36;98827.97;;;28.80;36.29
47280;BME280;34064;44.942;0.008;2022-10-04T14:25:10;98824.16;;;29.05;35.69
47280;BME280;34064;44.942;0.008;2022-10-04T14:30:59;98820.59;;;29.28;34.73
47280;BME280;34064;44.942;0.008;2022-10-04T14:47:35;98802.13;;;29.88;33.67
47280;BME280;34064;44.942;0.008;2022-10-04T15:01:17;98791.13;;;30.12;33.95
47280;BME280;34064;44.942;0.008;2022-10-04T15:07:18;98792.78;;;30.30;33.21
47280;BME280;34064;44.942;0.008;2022-10-04T15:10:14;98793.97;;;30.34;33.12
47280;BME280;34064;44.942;0.008;2022-10-04T15:18:03;98786.19;;;30.60;32.21
47280;BME280;34064;44.942;0.008;2022-10-04T15:20:52;98767.88;;;31.00;31.46
47280;BME280;34064;44.942;0.008;2022-10-04T15:23:31;98743.38;;;31.77;31.77
47280;BME280;34064;44.942;0.008;2022-10-04T15:29:05;98693.34;;;33.31;28.50
47280;BME280;34064;44.942;0.008;2022-10-04T15:42:39;98536.84;;;39.33;20.70
47280;BME280;34064;44.942;0.008;2022-10-04T15:48:34;98670.56;;;36.30;24.07
47280;BME280;34064;44.942;0.008;2022-10-04T16:08:21;98887.13;;;29.81;32.88
47280;BME280;34064;44.942;0.008;2022-10-04T16:21:50;98928.44;;;28.36;35.48
47280;BME280;34064;44.942;0.008;2022-10-04T16:32:14;98946.03;;;27.65;36.47
47280;BME280;34064;44.942;0.008;2022-10-04T16:35:04;98948.28;;;27.50;36.83
47280;BME280;34064;44.942;0.008;2022-10-04T16:51:46;98974.25;;;26.63;38.26
47280;BME280;34064;44.942;0.008;2022-10-04T16:57:13;98976.06;;;26.37;39.06
47280;BME280;34064;44.942;0.008;2022-10-04T16:59:48;98979.47;;;26.26;39.06
47280;BME280;34064;44.942;0.008;2022-10-04T17:03:35;98985.56;;;26.14;39.66
47280;BME280;34064;44.942;0.008;2022-10-04T17:05:44;98989.56;;;25.98;39.58
47280;BME280;34064;44.942;0.008;2022-10-04T17:08:24;98996.50;;;25.88;39.89
47280;BME280;34064;44.942;0.008;2022-10-04T17:14:00;98995.09;;;25.58;40.39
47280;BME280;34064;44.942;0.008;2022-10-04T17:16:46;99000.31;;;25.46;41.05
47280;BME280;34064;44.942;0.008;2022-10-04T17:22:01;99012.44;;;25.30;41.41
47280;BME280;34064;44.942;0.008;2022-10-04T17:25:14;99023.06;;;25.18;41.40
47280;BME280;34064;44.942;0.008;2022-10-04T17:28:09;99022.47;;;25.10;41.82
47280;BME280;34064;44.942;0.008;2022-10-04T17:36:38;99031.97;;;24.72;42.37
47280;BME280;34064;44.942;0.008;2022-10-04T17:39:32;99041.72;;;24.59;42.67
47280;BME280;34064;44.942;0.008;2022-10-04T17:42:25;99036.44;;;24.44;42.66
47280;BME280;34064;44.942;0.008;2022-10-04T17:48:04;99045.50;;;24.17;44.24
47280;BME280;34064;44.942;0.008;2022-10-04T17:51:07;99058.53;;;23.99;44.25
47280;BME280;34064;44.942;0.008;2022-10-04T17:54:08;99061.53;;;23.83;45.61
47280;BME280;34064;44.942;0.008;2022-10-04T17:59:50;99071.91;;;23.51;46.14
47280;BME280;34064;44.942;0.008;2022-10-04T18:02:21;99079.94;;;23.38;45.86
47280;BME280;34064;44.942;0.008;2022-10-04T18:04:59;99088.56;;;23.26;46.43
47280;BME280;34064;44.942;0.008;2022-10-04T18:07:51;99090.72;;;23.16;46.32
47280;BME280;34064;44.942;0.008;2022-10-04T18:10:32;99096.66;;;23.04;46.88
47280;BME280;34064;44.942;0.008;2022-10-04T18:18:36;99105.88;;;22.73;47.53
47280;BME280;34064;44.942;0.008;2022-10-04T18:21:17;99099.91;;;22.63;47.58
47280;BME280;34064;44.942;0.008;2022-10-04T18:26:53;99103.91;;;22.37;48.33
47280;BME280;34064;44.942;0.008;2022-10-04T18:29:38;99111.66;;;22.25;48.37
47280;BME280;34064;44.942;0.008;2022-10-04T18:32:34;99116.41;;;22.08;49.18
47280;BME280;34064;44.942;0.008;2022-10-04T18:37:54;99127.72;;;21.89;48.87
47280;BME280;34064;44.942;0.008;2022-10-04T18:40:31;99129.13;;;21.85;48.76
47280;BME280;34064;44.942;0.008;2022-10-04T18:42:58;99129.84;;;21.78;49.15
47280;BME280;34064;44.942;0.008;2022-10-04T18:45:30;99133.09;;;21.74;49.11
47280;BME280;34064;44.942;0.008;2022-10-04T18:48:00;99135.03;;;21.65;49.12
47280;BME280;34064;44.942;0.008;2022-10-04T18:50:40;99130.50;;;21.57;49.33
47280;BME280;34064;44.942;0.008;2022-10-04T18:53:38;99131.41;;;21.49;50.04
47280;BME280;34064;44.942;0.008;2022-10-04T18:56:09;99132.19;;;21.35;50.31
47280;BME280;34064;44.942;0.008;2022-10-04T19:07:21;99146.03;;;21.09;50.47
47280;BME280;34064;44.942;0.008;2022-10-04T19:12:50;99153.69;;;20.97;50.50
47280;BME280;34064;44.942;0.008;2022-10-04T19:15:33;99155.56;;;20.88;50.94
47280;BME280;34064;44.942;0.008;2022-10-04T19:20:53;99153.28;;;20.77;50.81
47280;BME280;34064;44.942;0.008;2022-10-04T19:34:40;99157.22;;;20.49;51.63
47280;BME280;34064;44.942;0.008;2022-10-04T19:37:36;99165.34;;;20.41;52.09
47280;BME280;34064;44.942;0.008;2022-10-04T19:40:15;99169.06;;;20.32;52.16
47280;BME280;34064;44.942;0.008;2022-10-04T19:43:07;99169.59;;;20.27;52.04
47280;BME280;34064;44.942;0.008;2022-10-04T19:46:23;99182.09;;;20.12;52.91
47280;BME280;34064;44.942;0.008;2022-10-04T19:48:37;99178.88;;;20.08;52.53
47280;BME280;34064;44.942;0.008;2022-10-04T19:51:11;99171.47;;;20.02;52.35
47280;BME280;34064;44.942;0.008;2022-10-04T19:53:42;99181.25;;;19.94;52.69
47280;BME280;34064;44.942;0.008;2022-10-04T19:56:18;99185.28;;;19.90;52.51
47280;BME280;34064;44.942;0.008;2022-10-04T20:01:37;99184.25;;;19.83;52.66
47280;BME280;34064;44.942;0.008;2022-10-04T20:04:15;99183.75;;;19.79;52.44
47280;BME280;34064;44.942;0.008;2022-10-04T20:07:03;99184.91;;;19.69;52.86
47280;BME280;34064;44.942;0.008;2022-10-04T20:11:56;99192.97;;;19.52;53.43
47280;BME280;34064;44.942;0.008;2022-10-04T20:29:56;99198.91;;;19.13;53.74
47280;BME280;34064;44.942;0.008;2022-10-04T20:34:53;99201.59;;;19.05;53.17
47280;BME280;34064;44.942;0.008;2022-10-04T20:37:20;99202.75;;;19.02;53.59
47280;BME280;34064;44.942;0.008;2022-10-04T20:42:29;99202.56;;;18.95;53.85
47280;BME280;34064;44.942;0.008;2022-10-04T20:47:46;99213.59;;;18.84;54.19
47280;BME280;34064;44.942;0.008;2022-10-04T20:50:34;99211.34;;;18.71;55.07
47280;BME280;34064;44.942;0.008;2022-10-04T20:53:03;99217.56;;;18.71;54.48
47280;BME280;34064;44.942;0.008;2022-10-04T20:55:32;99210.50;;;18.70;54.12
47280;BME280;34064;44.942;0.008;2022-10-04T20:58:03;99203.91;;;18.65;54.16
47280;BME280;34064;44.942;0.008;2022-10-04T21:00:31;99207.47;;;18.65;53.99
47280;BME280;34064;44.942;0.008;2022-10-04T21:03:16;99211.16;;;18.64;54.02
47280;BME280;34064;44.942;0.008;2022-10-04T21:05:44;99216.09;;;18.51;55.38
47280;BME280;34064;44.942;0.008;2022-10-04T21:08:21;99213.41;;;18.51;54.34
47280;BME280;34064;44.942;0.008;2022-10-04T21:11:17;99216.72;;;18.36;54.96
47280;BME280;34064;44.942;0.008;2022-10-04T21:16:43;99216.63;;;18.28;54.56
47280;BME280;34064;44.942;0.008;2022-10-04T21:22:06;99211.06;;;18.21;54.40
47280;BME280;34064;44.942;0.008;2022-10-04T21:24:34;99215.22;;;18.16;54.76
47280;BME280;34064;44.942;0.008;2022-10-04T21:27:02;99206.91;;;18.09;54.89
47280;BME280;34064;44.942;0.008;2022-10-04T21:29:29;99220.81;;;18.04;55.25
47280;BME280;34064;44.942;0.008;2022-10-04T21:31:58;99214.28;;;18.07;54.77
47280;BME280;34064;44.942;0.008;2022-10-04T21:34:25;99217.13;;;18.05;54.94
47280;BME280;34064;44.942;0.008;2022-10-04T21:36:52;99216.44;;;18.03;54.91
47280;BME280;34064;44.942;0.008;2022-10-04T21:39:18;99220.59;;;17.98;54.99
47280;BME280;34064;44.942;0.008;2022-10-04T21:41:45;99221.19;;;17.91;55.20
47280;BME280;34064;44.942;0.008;2022-10-04T21:44:12;99224.03;;;17.90;55.04
47280;BME280;34064;44.942;0.008;2022-10-04T21:46:39;99228.03;;;17.86;55.37
47280;BME280;34064;44.942;0.008;2022-10-04T21:49:06;99232.63;;;17.75;55.65
47280;BME280;34064;44.942;0.008;2022-10-04T21:51:32;99233.38;;;17.68;55.80
47280;BME280;34064;44.942;0.008;2022-10-04T21:54:05;99231.88;;;17.65;55.62
47280;BME280;34064;44.942;0.008;2022-10-04T21:56:31;99235.00;;;17.60;55.59
47280;BME280;34064;44.942;0.008;2022-10-04T21:58:58;99236.16;;;17.58;55.28
47280;BME280;34064;44.942;0.008;2022-10-04T22:01:24;99235.47;;;17.56;55.30
47280;BME280;34064;44.942;0.008;2022-10-04T22:03:51;99235.09;;;17.51;55.43
47280;BME280;34064;44.942;0.008;2022-10-04T22:06:18;99238.22;;;17.46;55.60
47280;BME280;34064;44.942;0.008;2022-10-04T22:08:44;99238.69;;;17.41;55.42
47280;BME280;34064;44.942;0.008;2022-10-04T22:11:12;99232.78;;;17.38;55.37
47280;BME280;34064;44.942;0.008;2022-10-04T22:13:38;99236.56;;;17.35;55.42
47280;BME280;34064;44.942;0.008;2022-10-04T22:16:05;99234.22;;;17.32;55.57
47280;BME280;34064;44.942;0.008;2022-10-04T22:18:32;99229.50;;;17.34;55.38
47280;BME280;34064;44.942;0.008;2022-10-04T22:20:59;99237.03;;;17.30;55.92
47280;BME280;34064;44.942;0.008;2022-10-04T22:23:28;99223.59;;;17.30;55.76
47280;BME280;34064;44.942;0.008;2022-10-04T22:25:55;99229.13;;;17.29;55.85
47280;BME280;34064;44.942;0.008;2022-10-04T22:28:27;99226.44;;;17.29;55.58
47280;BME280;34064;44.942;0.008;2022-10-04T22:30:55;99234.41;;;17.21;56.23
47280;BME280;34064;44.942;0.008;2022-10-04T22:33:34;99230.03;;;17.20;55.99
47280;BME280;34064;44.942;0.008;2022-10-04T22:36:15;99233.88;;;17.17;55.90
47280;BME280;34064;44.942;0.008;2022-10-04T22:38:55;99226.94;;;17.14;55.92
47280;BME280;34064;44.942;0.008;2022-10-04T22:41:34;99217.06;;;17.15;55.78
47280;BME280;34064;44.942;0.008;2022-10-04T22:46:41;99226.84;;;17.06;56.14
47280;BME280;34064;44.942;0.008;2022-10-04T22:49:21;99231.66;;;17.03;56.15
47280;BME280;34064;44.942;0.008;2022-10-04T22:51:50;99231.13;;;16.99;56.13
47280;BME280;34064;44.942;0.008;2022-10-04T22:54:19;99233.69;;;16.91;56.59
47280;BME280;34064;44.942;0.008;2022-10-04T22:56:46;99229.03;;;16.83;56.35
47280;BME280;34064;44.942;0.008;2022-10-04T22:59:15;99236.84;;;16.76;56.27
47280;BME280;34064;44.942;0.008;2022-10-04T23:01:42;99235.84;;;16.77;56.01
47280;BME280;34064;44.942;0.008;2022-10-04T23:04:23;99221.88;;;16.74;56.10
47280;BME280;34064;44.942;0.008;2022-10-04T23:06:50;99223.88;;;16.72;55.83
47280;BME280;34064;44.942;0.008;2022-10-04T23:09:18;99233.66;;;16.63;56.26
47280;BME280;34064;44.942;0.008;2022-10-04T23:11:44;99238.31;;;16.61;56.20